RAAF Base Curtin
YCIN : now visible

Airfield :











YOU CAN JOIN US ON...

 
LOGIN :

Register | Disclaimer

   EN    FR    IT 

 









Legend :    VFR   Marginal VFR   IFR   Intensive IFR   Very Intensive IFR
Visi :
Ceiling :
>= 8 km
>= 3000ft
5 to 8 km
1000 to 3000 ft
1500m to 5 km
500 to 1000 ft
800 to 1500m
200 to 500 ft
< 800m
< 200 ft
Symbols :   Thunderstorms  Fog  Heavy snow  Heavy precipitations  Wind > 20 kt







- Airport Elevation : 300 ft


YCIN - RAAF Base Curtin

CURRENT METAR :
  • 270830Z AUTO 28005KT 260V320 9999 // NCD 30/M00 Q1012 RF00.0/000.0

EXPIRED METARs :
  • 270800Z AUTO 16005KT 9999 // NCD 31/M05 Q1012 RF00.0/000.0
  • 270730Z AUTO 18004KT 140V230 9999 // NCD 32/M04 Q1012 RF00.0/000.0
  • 270700Z AUTO 15004KT 9999 // NCD 32/M03 Q1012 RF00.0/000.0
  • 270630Z AUTO 16006KT 090V210 9999 // NCD 32/M04 Q1012 RF00.0/000.0
  • 270600Z AUTO 14003KT 9999 // NCD 32/M04 Q1012 RF00.0/000.0

TAF TAF YCIN
Valid from the 27 at 08:00 until the 27 at 20:00 UTC


270635Z 2708/2720 33007KT CAVOK
FM271200 16004KT CAVOK
YBBB FIR / Oceania



MET'MAP, your aeronautical weather chart ! - Copyright ORBIFLY December 2007 - Disclaimer

ORBIFLY MET'MAP TEAM :

Programming & Development : Alexandra Zaïnal
Concept & Development : Baudouin d'Aumeries
Co-Development & Prog : Marc-Olivier Méhu
Technical & hardware support : Manuel Goepfert

Contact : metmap@orbifly.com




SOURCES & CREDITS :

   NOAA       Earth
Advisory